createdAt,value
2023-01-12T00:01:54.619Z,10.10
2023-01-12T00:04:22.135Z,9.30
2023-01-12T00:06:49.430Z,9.77
2023-01-12T00:09:16.814Z,11.13
2023-01-12T00:11:44.113Z,10.82
2023-01-12T00:14:11.459Z,10.35
2023-01-12T00:16:38.956Z,9.57
2023-01-12T00:19:12.097Z,9.82
2023-01-12T00:21:56.478Z,8.00
2023-01-12T00:24:28.192Z,8.50
2023-01-12T00:26:57.098Z,11.40
2023-01-12T00:29:25.777Z,10.73
2023-01-12T00:31:54.037Z,11.75
2023-01-12T00:34:22.138Z,10.05
2023-01-12T00:36:49.506Z,8.32
2023-01-12T00:39:17.403Z,9.55
2023-01-12T00:42:03.728Z,13.07
2023-01-12T00:44:49.564Z,9.45
2023-01-12T00:47:17.971Z,7.85
2023-01-12T00:49:45.900Z,9.23
2023-01-12T00:52:29.415Z,11.07
2023-01-12T00:54:58.148Z,8.05
2023-01-12T00:57:25.564Z,9.07
2023-01-12T00:59:55.625Z,9.38
2023-01-12T01:02:23.890Z,9.23
2023-01-12T01:04:51.242Z,9.45
2023-01-12T01:07:18.724Z,7.57
2023-01-12T01:09:46.129Z,7.53
2023-01-12T01:12:13.626Z,8.70
2023-01-12T01:14:40.869Z,7.47
2023-01-12T01:17:08.158Z,9.85
2023-01-12T01:19:35.385Z,9.00
2023-01-12T01:22:02.650Z,8.00
2023-01-12T01:24:29.908Z,9.20
2023-01-12T01:26:57.203Z,7.00
2023-01-12T01:29:24.432Z,7.07
2023-01-12T01:31:54.213Z,8.95
2023-01-12T01:34:21.524Z,7.78
2023-01-12T01:36:48.698Z,8.20
2023-01-12T01:39:15.956Z,8.02
2023-01-12T01:41:43.713Z,7.45
2023-01-12T01:44:29.428Z,10.57
2023-01-12T01:46:56.611Z,8.00
2023-01-12T01:49:29.824Z,9.35
2023-01-12T01:52:05.152Z,8.18
2023-01-12T01:54:39.598Z,7.68
2023-01-12T01:57:10.014Z,6.93
2023-01-12T01:59:40.635Z,8.05
2023-01-12T02:02:08.047Z,7.15
2023-01-12T02:04:36.608Z,5.75
2023-01-12T02:07:07.011Z,7.35
2023-01-12T02:09:34.353Z,8.80
2023-01-12T02:12:20.787Z,7.35
2023-01-12T02:15:09.795Z,9.00
2023-01-12T02:18:24.121Z,6.82
2023-01-12T02:21:11.894Z,6.80
2023-01-12T02:24:16.528Z,7.28
2023-01-12T02:27:13.148Z,7.80
2023-01-12T02:29:52.237Z,10.50
2023-01-12T02:32:32.748Z,7.47
2023-01-12T02:34:59.944Z,8.18
2023-01-12T02:37:32.720Z,8.40
2023-01-12T02:40:05.550Z,7.63
2023-01-12T02:42:41.755Z,5.82
2023-01-12T02:45:46.056Z,7.63
2023-01-12T02:48:27.301Z,7.65
2023-01-12T02:50:59.328Z,7.32
2023-01-12T02:53:50.223Z,7.63
2023-01-12T02:56:24.491Z,6.78
2023-01-12T02:58:56.612Z,7.40
2023-01-12T03:01:27.332Z,7.68
2023-01-12T03:04:01.074Z,6.22
2023-01-12T03:06:51.634Z,7.18
2023-01-12T03:09:19.193Z,7.88
2023-01-12T03:11:50.977Z,7.68
2023-01-12T03:14:18.275Z,7.05
2023-01-12T03:16:45.560Z,6.50
2023-01-12T03:19:27.278Z,7.10
2023-01-12T03:22:00.593Z,5.78
2023-01-12T03:24:32.135Z,6.35
2023-01-12T03:27:05.365Z,6.50
2023-01-12T03:29:50.355Z,7.18
2023-01-12T03:32:19.840Z,7.47
2023-01-12T03:34:47.153Z,7.32
2023-01-12T03:37:25.547Z,6.15
2023-01-12T03:40:18.610Z,8.60
2023-01-12T03:42:54.606Z,6.00
2023-01-12T03:45:42.116Z,6.40
2023-01-12T03:48:19.478Z,7.43
2023-01-12T03:51:00.703Z,9.07
2023-01-12T03:53:29.939Z,7.10
2023-01-12T03:56:02.440Z,7.43
2023-01-12T03:58:31.355Z,6.15
2023-01-12T04:00:58.730Z,6.75
2023-01-12T04:03:26.127Z,5.55
2023-01-12T04:05:53.446Z,7.72
2023-01-12T04:08:20.688Z,7.20
2023-01-12T04:10:48.016Z,9.02
2023-01-12T04:13:15.343Z,5.53
2023-01-12T04:15:42.717Z,5.45
2023-01-12T04:18:10.819Z,6.05
2023-01-12T04:20:39.100Z,6.18
2023-01-12T04:23:07.315Z,7.97
2023-01-12T04:25:35.023Z,6.55
2023-01-12T04:28:03.413Z,6.20
2023-01-12T04:30:32.617Z,6.20
2023-01-12T04:33:05.588Z,6.95
2023-01-12T04:35:32.878Z,6.40
2023-01-12T04:38:06.033Z,5.78
2023-01-12T04:43:07.928Z,6.30
2023-01-12T04:45:42.119Z,5.63
2023-01-12T04:48:12.136Z,6.47
2023-01-12T04:50:40.078Z,6.05
2023-01-12T04:53:09.983Z,6.20
2023-01-12T04:55:38.646Z,6.97
2023-01-12T04:58:06.191Z,8.18
2023-01-12T05:00:33.711Z,8.45
2023-01-12T05:03:02.520Z,5.85
2023-01-12T05:05:32.096Z,6.68
2023-01-12T05:08:22.691Z,5.85
2023-01-12T05:10:55.073Z,5.22
2023-01-12T05:13:23.973Z,6.68
2023-01-12T05:15:51.394Z,6.00
2023-01-12T05:18:19.300Z,6.60
2023-01-12T05:20:46.633Z,6.00
2023-01-12T05:23:13.980Z,5.88
2023-01-12T05:25:41.203Z,6.25
2023-01-12T05:28:08.422Z,5.55
2023-01-12T05:30:35.763Z,5.38
2023-01-12T05:33:03.044Z,6.20
2023-01-12T05:35:30.342Z,6.88
2023-01-12T05:37:57.708Z,6.70
2023-01-12T05:40:25.233Z,5.53
2023-01-12T05:43:11.258Z,6.95
2023-01-12T05:45:38.501Z,4.78
2023-01-12T05:48:06.032Z,6.32
2023-01-12T05:50:33.309Z,5.22
2023-01-12T05:53:10.268Z,7.13
2023-01-12T05:55:38.199Z,5.68
2023-01-12T05:58:05.550Z,7.30
2023-01-12T06:00:33.037Z,6.43
2023-01-12T06:03:02.141Z,5.97
2023-01-12T06:05:29.400Z,5.32
2023-01-12T06:07:56.716Z,6.18
2023-01-12T06:10:24.818Z,5.43
2023-01-12T06:13:10.895Z,4.70
2023-01-12T06:15:38.187Z,6.50
2023-01-12T06:18:05.553Z,6.40
2023-01-12T06:20:32.851Z,5.03
2023-01-12T06:23:02.240Z,7.57
2023-01-12T06:25:30.116Z,5.28
2023-01-12T06:27:57.636Z,7.75
2023-01-12T06:30:25.106Z,7.68
2023-01-12T06:32:52.381Z,4.57
2023-01-12T06:35:20.019Z,5.78
2023-01-12T06:37:47.411Z,5.88
2023-01-12T06:40:15.780Z,5.07
2023-01-12T06:42:43.080Z,7.28
2023-01-12T06:45:10.762Z,6.40
2023-01-12T06:48:04.521Z,5.18
2023-01-12T06:50:32.811Z,5.35
2023-01-12T06:53:01.423Z,4.78
2023-01-12T06:55:29.091Z,6.63
2023-01-12T06:57:56.626Z,6.00
2023-01-12T07:00:23.994Z,5.22
2023-01-12T07:02:51.782Z,6.32
2023-01-12T07:05:19.243Z,6.72
2023-01-12T07:07:46.476Z,5.10
2023-01-12T07:10:14.450Z,5.45
2023-01-12T07:12:41.677Z,5.90
2023-01-12T07:15:09.615Z,5.88
2023-01-12T07:17:36.910Z,5.80
2023-01-12T07:20:04.614Z,7.18
2023-01-12T07:22:31.978Z,6.13
2023-01-12T07:24:59.258Z,6.80
2023-01-12T07:27:26.528Z,5.78
2023-01-12T07:29:53.825Z,6.47
2023-01-12T07:32:24.823Z,4.68
2023-01-12T07:34:52.069Z,6.72
2023-01-12T07:37:19.503Z,6.32
2023-01-12T07:39:46.980Z,4.65
2023-01-12T07:42:23.508Z,5.32
2023-01-12T07:44:52.318Z,6.68
2023-01-12T07:47:19.716Z,5.88
2023-01-12T07:49:47.052Z,7.30
2023-01-12T07:52:14.698Z,5.78
2023-01-12T07:54:42.007Z,4.88
2023-01-12T07:57:10.792Z,6.70
2023-01-12T07:59:38.234Z,5.70
2023-01-12T08:02:06.673Z,5.63
2023-01-12T08:04:34.097Z,5.55
2023-01-12T08:07:01.563Z,5.90
2023-01-12T08:09:28.847Z,7.15
2023-01-12T08:11:56.012Z,6.22
2023-01-12T08:14:28.822Z,10.05
2023-01-12T08:17:01.648Z,6.40
2023-01-12T08:19:38.662Z,6.75
2023-01-12T08:22:12.825Z,7.05
2023-01-12T08:24:44.739Z,6.13
2023-01-12T08:27:12.317Z,9.57
2023-01-12T08:29:47.968Z,9.93
2023-01-12T08:32:19.113Z,9.02
2023-01-12T08:34:52.275Z,7.00
2023-01-12T08:39:49.993Z,9.02
2023-01-12T08:42:18.462Z,8.68
2023-01-12T08:44:46.068Z,10.63
2023-01-12T08:47:23.075Z,9.23
2023-01-12T08:49:50.515Z,7.45
2023-01-12T08:52:17.869Z,8.18
2023-01-12T08:54:47.432Z,8.27
2023-01-12T08:57:16.292Z,8.32
2023-01-12T08:59:44.014Z,10.50
2023-01-12T09:02:13.033Z,13.45
2023-01-12T09:04:40.820Z,12.77
2023-01-12T09:07:10.050Z,9.80
2023-01-12T09:09:37.394Z,9.95
2023-01-12T09:12:05.539Z,12.15
2023-01-12T09:14:38.427Z,14.73
2023-01-12T09:17:06.883Z,9.15
2023-01-12T09:19:34.501Z,10.90
2023-01-12T09:22:01.830Z,11.63
2023-01-12T09:24:29.184Z,14.65
2023-01-12T09:26:56.543Z,9.65
2023-01-12T09:29:23.918Z,9.15
2023-01-12T09:31:51.850Z,8.90
2023-01-12T09:34:19.188Z,11.18
2023-01-12T09:36:46.625Z,8.63
2023-01-12T09:39:26.764Z,8.65
2023-01-12T09:42:14.422Z,11.30
2023-01-12T09:45:03.133Z,8.07
2023-01-12T09:48:02.943Z,7.80
2023-01-12T09:50:47.416Z,7.95
2023-01-12T09:53:19.383Z,8.27
2023-01-12T09:56:05.701Z,8.77
2023-01-12T09:58:53.373Z,10.05
2023-01-12T10:01:29.116Z,10.38
2023-01-12T10:03:59.894Z,10.20
2023-01-12T10:06:27.266Z,11.88
2023-01-12T10:08:57.513Z,9.23
2023-01-12T10:11:53.204Z,9.75
2023-01-12T10:14:28.328Z,12.23
2023-01-12T10:17:07.787Z,9.98
2023-01-12T10:19:40.832Z,11.07
2023-01-12T10:24:42.191Z,7.32
2023-01-12T10:27:13.562Z,6.53
2023-01-12T10:29:41.922Z,5.68
2023-01-12T10:32:12.283Z,9.82
2023-01-12T10:34:51.367Z,7.95
2023-01-12T10:37:18.796Z,7.15
2023-01-12T10:39:46.114Z,7.05
2023-01-12T10:42:42.757Z,7.47
2023-01-12T10:45:30.195Z,6.60
2023-01-12T10:47:57.903Z,8.30
2023-01-12T10:50:29.429Z,7.32
2023-01-12T10:53:14.375Z,7.63
2023-01-12T10:55:43.151Z,6.15
2023-01-12T10:58:36.765Z,8.43
2023-01-12T11:03:37.695Z,5.85
2023-01-12T11:06:24.462Z,5.20
2023-01-12T11:08:51.963Z,6.03
2023-01-12T11:11:28.337Z,7.20
2023-01-12T11:13:58.744Z,5.82
2023-01-12T11:16:32.624Z,5.65
2023-01-12T11:19:23.823Z,6.63
2023-01-12T11:22:25.547Z,4.65
2023-01-12T11:25:13.512Z,7.35
2023-01-12T11:27:47.271Z,5.45
2023-01-12T11:30:41.329Z,7.32
2023-01-12T11:33:11.570Z,6.15
2023-01-12T11:35:41.915Z,5.88
2023-01-12T11:38:17.217Z,5.55
2023-01-12T11:40:45.884Z,5.65
2023-01-12T11:43:50.669Z,6.07
2023-01-12T11:46:44.160Z,4.57
2023-01-12T11:49:29.817Z,6.07
2023-01-12T11:51:59.594Z,4.43
2023-01-12T11:54:28.937Z,5.40
2023-01-12T11:57:20.764Z,5.13
2023-01-12T12:00:02.922Z,7.00
2023-01-12T12:03:02.913Z,7.20
2023-01-12T12:06:00.743Z,4.18
2023-01-12T12:08:48.359Z,5.38
2023-01-12T12:11:50.982Z,4.43
2023-01-12T12:15:01.567Z,4.88
2023-01-12T12:17:41.898Z,4.97
2023-01-12T12:20:18.026Z,4.22
2023-01-12T12:23:20.308Z,6.30
2023-01-12T12:26:15.962Z,5.63
2023-01-12T12:29:01.835Z,4.68
2023-01-12T12:31:50.474Z,5.03
2023-01-12T12:34:17.660Z,6.95
2023-01-12T12:36:52.172Z,6.22
2023-01-12T12:39:35.285Z,5.82
2023-01-12T12:42:36.347Z,4.60
2023-01-12T12:45:18.117Z,3.92
2023-01-12T12:48:07.377Z,5.35
2023-01-12T12:50:45.612Z,3.90
2023-01-12T12:53:12.819Z,3.97
2023-01-12T12:55:41.254Z,5.32
2023-01-12T12:58:20.741Z,4.68
2023-01-12T13:00:52.673Z,4.43
2023-01-12T13:03:42.126Z,5.95
2023-01-12T13:06:40.175Z,5.00
2023-01-12T13:09:15.232Z,5.18
2023-01-12T13:11:58.027Z,3.67
2023-01-12T13:14:31.235Z,4.70
2023-01-12T13:17:20.403Z,5.45
2023-01-12T13:19:48.996Z,3.53
2023-01-12T13:22:45.012Z,4.93
2023-01-12T13:25:22.287Z,4.10
2023-01-12T13:28:01.506Z,5.85
2023-01-12T13:30:28.826Z,4.10
2023-01-12T13:33:14.699Z,4.15
2023-01-12T13:35:44.615Z,3.58
2023-01-12T13:38:45.833Z,6.03
2023-01-12T13:41:51.942Z,4.40
2023-01-12T13:44:36.765Z,4.40
2023-01-12T13:47:10.287Z,4.72
2023-01-12T13:49:46.656Z,5.47
2023-01-12T13:52:34.196Z,4.72
2023-01-12T13:55:02.934Z,3.85
2023-01-12T13:57:31.630Z,5.07
2023-01-12T14:00:00.922Z,6.70
2023-01-12T14:02:32.254Z,4.15
2023-01-12T14:05:14.730Z,5.85
2023-01-12T14:08:16.830Z,5.40
2023-01-12T14:11:05.853Z,3.65
2023-01-12T14:13:48.285Z,5.00
2023-01-12T14:16:35.286Z,6.40
2023-01-12T14:19:18.767Z,4.47
2023-01-12T14:21:57.102Z,5.88
2023-01-12T14:24:27.423Z,4.45
2023-01-12T14:26:54.715Z,5.35
2023-01-12T14:29:22.072Z,5.72
2023-01-12T14:31:52.423Z,4.35
2023-01-12T14:34:32.595Z,6.35
2023-01-12T14:37:01.659Z,4.15
2023-01-12T14:39:36.721Z,5.57
2023-01-12T14:42:22.917Z,4.93
2023-01-12T14:45:11.997Z,5.13
2023-01-12T14:47:40.195Z,6.43
2023-01-12T14:50:22.194Z,5.68
2023-01-12T14:52:49.433Z,8.02
2023-01-12T14:55:19.898Z,6.80
2023-01-12T14:57:52.988Z,4.80
2023-01-12T15:02:56.528Z,4.68
2023-01-12T15:05:27.185Z,6.05
2023-01-12T15:07:58.800Z,4.78
2023-01-12T15:10:35.048Z,6.13
2023-01-12T15:13:29.940Z,5.68
2023-01-12T15:16:16.057Z,4.35
2023-01-12T15:19:02.140Z,5.43
2023-01-12T15:21:49.905Z,4.38
2023-01-12T15:24:49.811Z,4.50
2023-01-12T15:27:20.240Z,5.43
2023-01-12T15:29:47.603Z,5.30
2023-01-12T15:32:22.380Z,4.95
2023-01-12T15:34:49.754Z,4.93
2023-01-12T15:37:18.884Z,3.97
2023-01-12T15:39:46.889Z,6.28
2023-01-12T15:42:17.524Z,4.38
2023-01-12T15:44:45.946Z,5.72
2023-01-12T15:47:14.778Z,4.97
2023-01-12T15:49:45.953Z,6.60
2023-01-12T15:52:23.944Z,5.13
2023-01-12T15:54:52.131Z,5.15
2023-01-12T15:57:19.600Z,7.07
2023-01-12T15:59:46.881Z,4.18
2023-01-12T16:02:24.825Z,8.68
2023-01-12T16:04:52.612Z,5.82
2023-01-12T16:07:19.995Z,6.18
2023-01-12T16:09:47.885Z,5.30
2023-01-12T16:12:15.435Z,4.25
2023-01-12T16:14:42.834Z,6.75
2023-01-12T16:17:10.318Z,4.82
2023-01-12T16:19:41.528Z,5.60
2023-01-12T16:22:25.167Z,6.72
2023-01-12T16:24:54.436Z,6.82
2023-01-12T16:27:26.554Z,7.80
2023-01-12T16:29:54.326Z,5.50
2023-01-12T16:32:26.293Z,6.55
2023-01-12T16:34:53.932Z,5.95
2023-01-12T16:37:23.147Z,6.65
2023-01-12T16:39:50.474Z,4.97
2023-01-12T16:42:17.819Z,4.72
2023-01-12T16:44:48.490Z,4.63
2023-01-12T16:47:18.648Z,5.80
2023-01-12T16:49:50.569Z,6.43
2023-01-12T16:52:19.977Z,6.43
2023-01-12T16:54:47.443Z,8.40
2023-01-12T16:57:17.336Z,8.27
2023-01-12T16:59:45.012Z,6.63
2023-01-12T17:02:17.049Z,4.78
2023-01-12T17:04:45.732Z,7.05
2023-01-12T17:07:13.203Z,7.15
2023-01-12T17:09:41.124Z,8.40
2023-01-12T17:12:08.873Z,6.13
2023-01-12T17:14:36.402Z,5.90
2023-01-12T17:17:09.975Z,6.05
2023-01-12T17:19:39.440Z,8.23
2023-01-12T17:22:07.952Z,6.07
2023-01-12T17:24:39.741Z,6.95
2023-01-12T17:27:09.183Z,7.00
2023-01-12T17:29:37.313Z,7.65
2023-01-12T17:32:07.041Z,9.00
2023-01-12T17:34:38.761Z,7.68
2023-01-12T17:37:09.825Z,8.73
2023-01-12T17:39:43.048Z,6.30
2023-01-12T17:42:31.322Z,7.10
2023-01-12T17:44:58.636Z,7.53
2023-01-12T17:47:26.089Z,6.10
2023-01-12T17:49:54.586Z,6.50
2023-01-12T17:52:22.034Z,9.95
2023-01-12T17:54:49.270Z,7.82
2023-01-12T17:57:16.623Z,7.00
2023-01-12T17:59:44.677Z,7.20
2023-01-12T18:02:13.178Z,8.35
2023-01-12T18:04:40.500Z,7.95
2023-01-12T18:07:07.764Z,8.75
2023-01-12T18:09:36.781Z,7.03
2023-01-12T18:12:05.192Z,8.25
2023-01-12T18:14:32.789Z,6.15
2023-01-12T18:17:00.167Z,7.60
2023-01-12T18:19:27.471Z,8.85
2023-01-12T18:21:54.728Z,8.57
2023-01-12T18:24:22.401Z,11.98
2023-01-12T18:26:50.914Z,6.85
2023-01-12T18:29:18.288Z,8.05
2023-01-12T18:31:47.350Z,8.07
2023-01-12T18:34:16.664Z,9.85
2023-01-12T18:36:44.012Z,7.60
2023-01-12T18:39:16.094Z,7.65
2023-01-12T18:42:02.447Z,8.10
2023-01-12T18:44:31.335Z,6.50
2023-01-12T18:47:18.495Z,7.85
2023-01-12T18:49:49.299Z,9.13
2023-01-12T18:52:36.377Z,7.03
2023-01-12T18:55:05.459Z,8.25
2023-01-12T18:57:34.509Z,9.10
2023-01-12T19:00:15.552Z,7.38
2023-01-12T19:02:43.179Z,9.43
2023-01-12T19:05:21.857Z,8.25
2023-01-12T19:08:05.011Z,7.25
2023-01-12T19:10:33.630Z,7.85
2023-01-12T19:13:20.240Z,8.57
2023-01-12T19:16:06.181Z,8.77
2023-01-12T19:18:36.904Z,8.45
2023-01-12T19:21:37.541Z,7.53
2023-01-12T19:24:23.624Z,8.02
2023-01-12T19:27:09.664Z,6.03
2023-01-12T19:29:39.884Z,8.63
2023-01-12T19:32:08.184Z,9.32
2023-01-12T19:34:35.475Z,9.50
2023-01-12T19:37:03.005Z,9.93
2023-01-12T19:39:59.729Z,9.88
2023-01-12T19:42:47.205Z,8.20
2023-01-12T19:45:14.860Z,10.82
2023-01-12T19:47:42.284Z,9.52
2023-01-12T19:50:11.465Z,10.85
2023-01-12T19:52:40.380Z,11.27
2023-01-12T19:55:10.155Z,10.60
2023-01-12T19:57:38.846Z,8.30
2023-01-12T20:00:08.732Z,10.65
2023-01-12T20:02:45.151Z,10.68
2023-01-12T20:05:13.678Z,10.90
2023-01-12T20:07:41.084Z,11.52
2023-01-12T20:10:09.139Z,12.57
2023-01-12T20:12:37.366Z,12.93
2023-01-12T20:15:05.141Z,12.27
2023-01-12T20:17:32.667Z,11.52
2023-01-12T20:19:59.913Z,11.02
2023-01-12T20:22:27.199Z,10.18
2023-01-12T20:24:54.475Z,11.95
2023-01-12T20:27:21.792Z,14.20
2023-01-12T20:29:49.102Z,10.13
2023-01-12T20:32:16.431Z,11.15
2023-01-12T20:34:43.759Z,11.55
2023-01-12T20:37:11.060Z,12.23
2023-01-12T20:39:38.328Z,11.82
2023-01-12T20:42:05.699Z,12.85
2023-01-12T20:44:33.968Z,13.25
2023-01-12T20:47:01.367Z,10.70
2023-01-12T20:49:28.642Z,12.02
2023-01-12T20:51:58.802Z,13.10
2023-01-12T20:54:26.175Z,13.82
2023-01-12T20:56:53.586Z,11.48
2023-01-12T20:59:20.947Z,11.05
2023-01-12T21:01:48.240Z,10.35
2023-01-12T21:04:15.566Z,10.10
2023-01-12T21:06:43.274Z,15.40
2023-01-12T21:09:11.047Z,12.43
2023-01-12T21:11:38.387Z,13.48
2023-01-12T21:14:05.737Z,14.02
2023-01-12T21:16:33.776Z,15.63
2023-01-12T21:19:02.474Z,14.18
2023-01-12T21:21:29.855Z,12.68
2023-01-12T21:23:57.194Z,12.38
2023-01-12T21:26:24.709Z,12.00
2023-01-12T21:28:52.088Z,11.27
2023-01-12T21:31:19.470Z,12.10
2023-01-12T21:33:46.965Z,12.68
2023-01-12T21:36:14.741Z,12.10
2023-01-12T21:38:42.472Z,11.73
2023-01-12T21:41:11.490Z,12.77
2023-01-12T21:43:39.315Z,10.48
2023-01-12T21:46:10.015Z,11.98
2023-01-12T21:48:37.468Z,11.95
2023-01-12T21:51:06.771Z,10.73
2023-01-12T21:53:34.541Z,10.20
2023-01-12T21:56:03.999Z,11.00
2023-01-12T21:58:36.427Z,11.13
2023-01-12T22:01:09.134Z,12.05
2023-01-12T22:03:36.667Z,11.38
2023-01-12T22:06:09.360Z,10.38
2023-01-12T22:08:38.646Z,15.93
2023-01-12T22:11:08.057Z,11.38
2023-01-12T22:13:36.701Z,11.73
2023-01-12T22:16:09.610Z,13.55
2023-01-12T22:18:37.843Z,11.40
2023-01-12T22:21:07.730Z,14.18
2023-01-12T22:23:38.415Z,10.82
2023-01-12T22:26:09.074Z,12.73
2023-01-12T22:28:38.993Z,12.73
2023-01-12T22:31:23.714Z,14.30
2023-01-12T22:34:06.889Z,13.80
2023-01-12T22:36:42.933Z,12.48
2023-01-12T22:39:13.970Z,12.73
2023-01-12T22:41:41.304Z,11.20
2023-01-12T22:44:08.633Z,11.00
2023-01-12T22:46:36.957Z,12.85
2023-01-12T22:49:04.329Z,10.38
2023-01-12T22:51:31.739Z,12.45
2023-01-12T22:53:59.084Z,13.35
2023-01-12T22:56:26.443Z,13.45
2023-01-12T22:58:55.416Z,14.60
2023-01-12T23:01:25.589Z,12.20
2023-01-12T23:03:54.665Z,13.32
2023-01-12T23:06:23.124Z,12.88
2023-01-12T23:08:51.056Z,14.75
2023-01-12T23:11:20.907Z,14.07
2023-01-12T23:13:48.752Z,15.05
2023-01-12T23:16:17.973Z,15.23
2023-01-12T23:18:47.217Z,11.32
2023-01-12T23:21:16.268Z,12.48
2023-01-12T23:23:49.157Z,15.02
2023-01-12T23:26:22.691Z,13.85
2023-01-12T23:28:56.193Z,12.05
2023-01-12T23:31:26.069Z,11.45
2023-01-12T23:33:53.668Z,11.75
2023-01-12T23:36:23.347Z,13.18
2023-01-12T23:38:58.315Z,14.23
2023-01-12T23:41:27.634Z,11.32
2023-01-12T23:43:56.922Z,13.98
2023-01-12T23:46:24.515Z,13.43
2023-01-12T23:48:54.181Z,13.45
2023-01-12T23:51:22.678Z,12.75
2023-01-12T23:53:59.428Z,14.25
2023-01-12T23:56:28.962Z,12.10
2023-01-12T23:58:56.760Z,12.60
